Time;durP1;ratioP1;P1;durP2;ratioP2;P2;SDS_P1;SDS_P2;PMS_P1;PMS_P2;Temp;Humidity;BMP_temperature;BMP_pressure;BME280_temperature;BME280_humidity;BME280_pressure;Samples;Min_cycle;Max_cycle;Signal;HPM_P1;HPM_P2
2021/12/03 00:00:50;;;;;;;16.13;10.07;;;;;;;4.73;84.48;98125.84;5014270;28;20081;-66
2021/12/03 00:03:24;;;;;;;19.05;9.95;;;;;;;4.89;84.42;98138.47;5014476;28;20076;-67
2021/12/03 00:05:57;;;;;;;14.48;9.30;;;;;;;4.96;84.50;98150.22;5014506;28;20050;-68
2021/12/03 00:08:29;;;;;;;16.95;9.15;;;;;;;4.93;84.56;98156.13;5014420;28;20057;-68
2021/12/03 00:11:04;;;;;;;15.80;9.88;;;;;;;4.95;84.45;98156.97;5014435;28;20133;-68
2021/12/03 00:13:36;;;;;;;17.27;8.75;;;;;;;5.02;84.06;98166.22;5013995;28;20038;-68
2021/12/03 00:16:10;;;;;;;14.85;9.27;;;;;;;5.02;84.21;98168.72;5014343;28;20471;-68
2021/12/03 00:18:44;;;;;;;15.32;9.23;;;;;;;5.04;84.38;98159.44;5014079;28;20104;-68
2021/12/03 00:21:17;;;;;;;15.70;8.77;;;;;;;5.09;84.27;98156.91;5013988;28;20124;-68
2021/12/03 00:23:50;;;;;;;16.50;8.75;;;;;;;5.13;84.58;98158.59;5014189;28;20100;-68
2021/12/03 00:26:23;;;;;;;13.20;8.13;;;;;;;5.04;84.13;98159.44;5014248;28;20042;-68
2021/12/03 00:28:55;;;;;;;13.88;7.78;;;;;;;4.98;84.05;98158.63;5014154;28;20147;-66
2021/12/03 00:31:28;;;;;;;14.57;7.82;;;;;;;4.91;84.60;98152.78;5012681;28;20124;-65
2021/12/03 00:34:02;;;;;;;15.02;8.40;;;;;;;4.90;84.25;98160.34;5013741;28;20053;-65
2021/12/03 00:36:34;;;;;;;14.90;8.50;;;;;;;5.00;84.46;98162.84;5013803;28;20052;-65
2021/12/03 00:39:07;;;;;;;16.88;8.65;;;;;;;5.01;84.11;98167.06;5013378;28;20074;-65
2021/12/03 00:41:46;;;;;;;14.50;8.35;;;;;;;5.07;83.96;98174.63;5014085;28;20144;-67
2021/12/03 00:44:20;;;;;;;16.50;9.00;;;;;;;4.99;83.81;98175.50;5013745;28;20046;-68
2021/12/03 00:46:53;;;;;;;13.80;7.32;;;;;;;4.91;83.97;98182.25;5012541;28;20046;-68
2021/12/03 00:49:28;;;;;;;16.25;8.35;;;;;;;4.88;84.18;98192.38;5013655;28;20054;-68
2021/12/03 00:52:00;;;;;;;12.68;7.53;;;;;;;4.82;83.74;98198.28;5012930;28;20512;-66
2021/12/03 00:54:32;;;;;;;14.98;6.68;;;;;;;4.85;84.03;98207.56;5013560;28;20044;-66
2021/12/03 00:57:05;;;;;;;12.90;6.57;;;;;;;4.90;84.20;98211.72;5014197;28;20439;-65
2021/12/03 00:59:38;;;;;;;10.52;6.18;;;;;;;4.92;84.08;98219.34;5013599;28;20053;-65
2021/12/03 01:02:10;;;;;;;10.32;6.50;;;;;;;4.91;84.23;98230.28;5013850;28;20053;-66
2021/12/03 01:04:46;;;;;;;14.00;5.85;;;;;;;4.94;84.16;98238.72;5013894;28;20069;-66
2021/12/03 01:07:19;;;;;;;9.60;6.05;;;;;;;5.10;83.89;98242.88;5013570;28;20046;-68
2021/12/03 01:09:51;;;;;;;10.23;5.90;;;;;;;5.21;83.92;98252.94;5013541;28;20061;-68
2021/12/03 01:12:23;;;;;;;13.25;6.80;;;;;;;5.28;84.01;98262.19;5013535;28;20073;-68
2021/12/03 01:14:56;;;;;;;11.75;6.22;;;;;;;5.34;83.80;98270.63;5013440;28;20105;-68
2021/12/03 01:17:28;;;;;;;10.15;5.32;;;;;;;5.38;83.40;98271.44;5013423;28;20132;-68
2021/12/03 01:20:06;;;;;;;11.52;5.93;;;;;;;5.38;83.46;98287.47;5013435;28;20050;-68
2021/12/03 01:22:39;;;;;;;12.88;7.00;;;;;;;5.37;83.09;98283.25;5013407;28;20084;-67
2021/12/03 01:25:14;;;;;;;12.35;6.47;;;;;;;5.45;83.16;98277.34;5013403;28;20046;-67
2021/12/03 01:27:48;;;;;;;12.73;6.45;;;;;;;5.43;82.59;98285.78;5013683;28;20143;-68
2021/12/03 01:30:24;;;;;;;12.10;5.60;;;;;;;5.45;82.40;98282.41;5013631;28;20052;-67
2021/12/03 01:33:01;;;;;;;10.32;5.35;;;;;;;5.50;81.91;98285.75;5013367;28;20046;-65
2021/12/03 01:35:36;;;;;;;10.95;5.97;;;;;;;5.49;81.64;98284.06;5013214;28;20138;-65
2021/12/03 01:38:09;;;;;;;10.50;5.75;;;;;;;5.55;81.57;98289.09;5013246;28;20046;-65
2021/12/03 01:40:39;;;;;;;11.50;5.90;;;;;;;5.51;81.27;98297.56;5013611;28;20054;-66
2021/12/03 01:43:19;;;;;;;10.48;6.05;;;;;;;5.42;81.11;98295.91;5013203;28;20100;-68
2021/12/03 01:45:53;;;;;;;10.43;5.82;;;;;;;5.46;80.77;98289.13;5013182;28;20045;-68
2021/12/03 01:48:27;;;;;;;13.43;7.50;;;;;;;5.38;80.79;98292.53;5013166;28;20133;-68
2021/12/03 01:50:58;;;;;;;12.98;6.93;;;;;;;5.38;80.52;98295.06;5013971;28;20081;-66
2021/12/03 01:53:33;;;;;;;16.15;7.50;;;;;;;5.45;80.35;98302.66;5016854;28;20053;-68
2021/12/03 01:56:09;;;;;;;16.67;8.55;;;;;;;5.38;80.25;98311.91;5016608;28;20106;-65
2021/12/03 01:58:44;;;;;;;15.18;9.05;;;;;;;5.30;80.07;98314.47;5016564;28;20050;-66
2021/12/03 02:01:16;;;;;;;17.80;8.75;;;;;;;5.25;79.49;98331.38;5016389;28;20111;-66
2021/12/03 02:03:52;;;;;;;15.38;8.15;;;;;;;5.27;79.29;98329.66;5016407;28;20046;-68
2021/12/03 02:06:27;;;;;;;16.67;8.10;;;;;;;5.28;78.66;98336.38;5016356;28;20050;-68
2021/12/03 02:09:00;;;;;;;16.77;8.68;;;;;;;5.29;78.52;98353.25;5016644;28;20486;-66
2021/12/03 02:11:29;;;;;;;17.30;8.27;;;;;;;5.30;78.35;98354.94;5016796;28;20065;-66
2021/12/03 02:14:02;;;;;;;17.15;8.60;;;;;;;5.28;78.13;98361.69;5016184;28;20096;-66
2021/12/03 02:16:35;;;;;;;16.00;8.00;;;;;;;5.21;77.16;98360.00;5016093;28;20046;-65
2021/12/03 02:19:08;;;;;;;15.23;7.53;;;;;;;5.19;77.06;98363.38;5016439;28;20050;-68
2021/12/03 02:21:38;;;;;;;17.38;7.75;;;;;;;5.20;75.92;98368.44;5016031;28;20129;-66
2021/12/03 02:24:11;;;;;;;14.10;6.53;;;;;;;5.14;75.45;98373.50;5016281;28;20084;-66
2021/12/03 02:26:43;;;;;;;13.80;6.95;;;;;;;5.12;75.09;98369.28;5016317;28;20049;-66
2021/12/03 02:29:15;;;;;;;15.55;6.97;;;;;;;5.09;74.32;98375.19;5015916;28;20562;-66
2021/12/03 02:31:48;;;;;;;15.55;7.28;;;;;;;5.11;73.98;98393.72;5015878;28;20046;-65
2021/12/03 02:34:21;;;;;;;12.30;6.45;;;;;;;5.11;73.92;98398.78;5016061;28;20046;-68
2021/12/03 02:36:55;;;;;;;16.48;6.13;;;;;;;5.08;73.72;98413.13;5015757;28;20076;-68
2021/12/03 02:39:27;;;;;;;11.02;5.43;;;;;;;5.13;73.13;98417.34;5015762;28;20050;-68
2021/12/03 02:42:00;;;;;;;10.90;4.78;;;;;;;5.03;72.83;98418.16;5015680;28;20084;-69
2021/12/03 02:44:32;;;;;;;13.98;5.18;;;;;;;5.10;72.20;98426.59;5015570;28;20042;-66
2021/12/03 02:47:05;;;;;;;14.45;5.57;;;;;;;5.03;71.94;98429.97;5015582;28;20054;-65
2021/12/03 02:49:39;;;;;;;14.80;5.38;;;;;;;5.08;71.70;98429.13;5015546;28;20054;-65
2021/12/03 02:52:13;;;;;;;10.18;5.10;;;;;;;5.13;71.56;98442.63;5014791;28;20562;-66
2021/12/03 02:54:46;;;;;;;10.52;4.40;;;;;;;5.01;71.17;98445.16;5015388;28;20049;-65
2021/12/03 02:57:19;;;;;;;10.45;4.20;;;;;;;4.96;70.58;98449.34;5015455;28;20083;-65
2021/12/03 02:59:51;;;;;;;8.90;4.68;;;;;;;4.95;70.52;98462.81;5015692;28;20567;-65
2021/12/03 03:02:24;;;;;;;10.27;4.68;;;;;;;4.97;70.29;98456.06;5015017;28;20046;-65
2021/12/03 03:04:57;;;;;;;12.18;4.45;;;;;;;5.03;70.40;98460.31;5015203;28;20054;-66
2021/12/03 03:07:31;;;;;;;12.75;5.88;;;;;;;5.00;70.11;98477.97;5015538;28;20042;-68
2021/12/03 03:10:08;;;;;;;11.18;4.80;;;;;;;4.95;70.19;98477.13;5015202;28;20057;-68
2021/12/03 03:12:41;;;;;;;9.38;4.68;;;;;;;4.91;70.01;98490.63;5015413;28;20074;-66
2021/12/03 03:15:16;;;;;;;9.48;4.88;;;;;;;4.93;69.86;98488.94;5014990;28;20066;-65
2021/12/03 03:17:46;;;;;;;9.00;4.43;;;;;;;4.94;69.77;98496.53;5015002;28;20054;-66
2021/12/03 03:20:20;;;;;;;9.70;4.40;;;;;;;4.91;69.59;98509.16;5015290;28;20054;-65
2021/12/03 03:22:55;;;;;;;8.25;4.22;;;;;;;4.85;69.57;98506.59;5014979;28;20054;-65
2021/12/03 03:25:28;;;;;;;12.80;4.50;;;;;;;4.89;69.08;98527.69;5015181;28;20046;-68
2021/12/03 03:28:00;;;;;;;10.60;4.18;;;;;;;4.83;69.10;98540.28;5015139;28;20555;-68
2021/12/03 03:30:34;;;;;;;9.27;3.83;;;;;;;4.86;69.02;98542.84;5014774;28;20061;-68
2021/12/03 03:33:07;;;;;;;9.07;3.88;;;;;;;4.82;68.83;98549.56;5014749;28;20080;-68
2021/12/03 03:35:39;;;;;;;8.13;4.10;;;;;;;4.71;68.44;98544.47;5014582;28;20047;-65
2021/12/03 03:38:15;;;;;;;5.35;2.83;;;;;;;4.68;68.78;98546.97;5014865;28;20168;-65
2021/12/03 03:40:48;;;;;;;8.88;3.25;;;;;;;4.73;68.13;98544.47;5014609;28;20053;-68
2021/12/03 03:43:20;;;;;;;7.55;3.35;;;;;;;4.69;67.88;98550.34;5014815;28;20064;-68
2021/12/03 03:45:52;;;;;;;8.70;3.30;;;;;;;4.64;67.56;98552.00;5014436;28;20065;-68
2021/12/03 03:48:25;;;;;;;7.80;3.05;;;;;;;4.69;67.29;98555.41;5014485;28;20475;-68
2021/12/03 03:50:58;;;;;;;11.80;3.08;;;;;;;4.70;67.53;98554.56;5014263;28;20108;-68
2021/12/03 03:53:31;;;;;;;6.45;3.22;;;;;;;4.64;66.98;98559.59;5014393;28;20049;-68
2021/12/03 03:56:04;;;;;;;10.05;3.35;;;;;;;4.58;66.77;98552.81;5014353;28;20042;-68
2021/12/03 03:58:37;;;;;;;6.55;2.83;;;;;;;4.52;66.90;98564.59;5014264;28;20492;-68
2021/12/03 04:01:11;;;;;;;6.60;3.10;;;;;;;4.52;67.41;98572.16;5014236;28;20050;-68
2021/12/03 04:03:46;;;;;;;5.82;2.70;;;;;;;4.45;67.47;98576.34;5014273;28;20057;-68
2021/12/03 04:06:20;;;;;;;7.38;3.38;;;;;;;4.48;66.95;98580.56;5014169;28;20133;-68
2021/12/03 04:08:56;;;;;;;8.57;3.20;;;;;;;4.46;66.99;98580.53;5014169;28;20077;-68
2021/12/03 04:11:40;;;;;;;7.60;2.50;;;;;;;4.54;66.72;98601.66;5014290;28;20419;-68
2021/12/03 04:14:23;;;;;;;7.53;2.88;;;;;;;4.49;66.70;98612.53;5013770;28;20412;-65
2021/12/03 04:17:06;;;;;;;7.00;3.15;;;;;;;4.46;66.95;98612.56;5014339;28;20060;-66
2021/12/03 04:19:49;;;;;;;9.30;3.13;;;;;;;4.42;66.57;98611.69;5014140;28;20088;-65
2021/12/03 04:22:32;;;;;;;6.97;2.28;;;;;;;4.38;66.12;98614.19;5014123;28;20049;-65
2021/12/03 04:25:25;;;;;;;4.95;2.35;;;;;;;4.36;65.85;98610.81;5013992;28;20076;-68
2021/12/03 04:28:08;;;;;;;5.72;2.00;;;;;;;4.33;65.21;98615.81;5014078;28;20528;-68
2021/12/03 04:30:52;;;;;;;5.80;2.20;;;;;;;4.30;65.02;98613.28;5014296;28;20487;-66
2021/12/03 04:33:35;;;;;;;5.40;2.20;;;;;;;4.22;65.15;98617.44;5013973;28;20085;-68
2021/12/03 04:36:18;;;;;;;4.47;2.10;;;;;;;4.22;64.49;98623.34;5013823;28;20056;-65
2021/12/03 04:39:01;;;;;;;5.55;2.30;;;;;;;4.23;64.36;98616.59;5014161;28;20046;-65
2021/12/03 04:41:46;;;;;;;5.43;2.30;;;;;;;4.13;64.03;98628.31;5014215;28;20050;-65
2021/12/03 04:44:30;;;;;;;7.43;1.83;;;;;;;4.02;63.34;98635.81;5013855;28;20144;-65
2021/12/03 04:47:13;;;;;;;4.55;2.00;;;;;;;4.04;63.97;98648.44;5014135;28;20086;-65
2021/12/03 04:49:56;;;;;;;5.63;2.35;;;;;;;3.96;62.97;98655.94;5013841;28;20495;-66
2021/12/03 04:52:37;;;;;;;5.35;1.90;;;;;;;3.95;62.83;98659.31;5012944;28;20050;-67
2021/12/03 04:55:20;;;;;;;5.00;2.20;;;;;;;3.92;62.50;98661.78;5013734;28;20554;-68
2021/12/03 04:58:12;;;;;;;7.40;1.58;;;;;;;3.89;62.28;98674.38;5013722;28;20057;-68
2021/12/03 05:00:57;;;;;;;4.20;1.65;;;;;;;3.90;62.63;98683.66;5014027;28;20058;-68
2021/12/03 05:03:40;;;;;;;3.72;1.83;;;;;;;3.89;62.67;98689.53;5014221;28;20085;-68
2021/12/03 05:06:41;;;;;;;3.88;1.67;;;;;;;3.78;62.70;98670.91;5014020;28;20057;-66
2021/12/03 05:09:28;;;;;;;4.22;1.90;;;;;;;3.93;62.45;98698.84;5013885;28;20137;-68
2021/12/03 05:12:12;;;;;;;4.47;2.03;;;;;;;3.99;62.98;98701.41;5013943;28;20057;-68
2021/12/03 05:14:56;;;;;;;4.15;1.75;;;;;;;3.94;62.45;98708.06;5013629;28;20046;-65
2021/12/03 05:17:40;;;;;;;4.30;1.63;;;;;;;3.87;62.57;98713.91;5013595;28;20056;-65
2021/12/03 05:20:23;;;;;;;4.80;1.90;;;;;;;3.94;61.65;98724.88;5013551;28;20049;-65
2021/12/03 05:23:06;;;;;;;4.50;1.90;;;;;;;3.88;61.32;98732.41;5013485;28;20486;-66
2021/12/03 05:25:48;;;;;;;5.57;2.00;;;;;;;3.81;62.07;98741.59;5016772;28;20069;-65
2021/12/03 05:28:32;;;;;;;6.05;1.92;;;;;;;3.78;62.36;98745.75;5017534;28;20046;-65
2021/12/03 05:31:17;;;;;;;3.17;1.58;;;;;;;3.81;61.99;98749.19;5017189;28;20136;-65
2021/12/03 05:34:12;;;;;;;3.65;1.60;;;;;;;3.75;61.69;98754.13;5017054;28;20128;-68
2021/12/03 05:36:58;;;;;;;6.75;2.00;;;;;;;3.72;61.80;98760.84;5016944;28;20050;-65
2021/12/03 05:39:40;;;;;;;4.78;1.80;;;;;;;3.64;61.43;98763.28;5017040;28;20042;-65
2021/12/03 05:42:24;;;;;;;6.70;2.00;;;;;;;3.61;61.53;98763.22;5017259;28;20042;-66
2021/12/03 05:45:11;;;;;;;4.18;1.95;;;;;;;3.57;61.16;98766.56;5017744;28;20050;-66
2021/12/03 05:47:56;;;;;;;5.07;1.42;;;;;;;3.53;61.48;98769.84;5016950;28;20059;-66
2021/12/03 05:50:39;;;;;;;6.38;1.83;;;;;;;3.54;61.56;98766.50;5016778;28;20060;-67
2021/12/03 05:53:19;;;;;;;5.00;1.80;;;;;;;3.55;61.44;98768.19;5016873;28;20058;-66
2021/12/03 05:56:02;;;;;;;4.70;1.60;;;;;;;3.55;61.14;98772.41;5017270;28;20116;-67
2021/12/03 05:58:45;;;;;;;3.67;1.58;;;;;;;3.45;60.98;98768.91;5016624;28;20052;-68
2021/12/03 06:01:29;;;;;;;4.32;1.38;;;;;;;3.44;60.64;98773.94;5016904;28;20050;-67
2021/12/03 06:04:14;;;;;;;4.32;1.55;;;;;;;3.35;60.13;98780.56;5016602;28;20181;-65
2021/12/03 06:06:57;;;;;;;5.20;1.83;;;;;;;3.30;60.07;98778.81;5016791;28;20104;-65
2021/12/03 06:09:41;;;;;;;2.65;1.40;;;;;;;3.31;59.48;98783.03;5016474;28;20060;-66
2021/12/03 06:12:24;;;;;;;6.57;1.83;;;;;;;3.23;60.05;98782.06;5016342;28;20393;-66
2021/12/03 06:15:08;;;;;;;3.47;1.40;;;;;;;3.26;59.99;98795.53;5016618;28;20050;-65
2021/12/03 06:17:59;;;;;;;4.25;1.50;;;;;;;3.22;59.26;98808.94;5016123;28;20060;-68
2021/12/03 06:20:44;;;;;;;3.92;1.23;;;;;;;3.22;58.94;98813.13;5016529;28;20049;-67
2021/12/03 06:23:28;;;;;;;4.53;1.73;;;;;;;3.22;59.61;98815.66;5016494;28;20046;-67
2021/12/03 06:26:12;;;;;;;8.27;2.90;;;;;;;3.22;59.07;98833.31;5016063;28;20514;-65
2021/12/03 06:28:53;;;;;;;6.13;2.70;;;;;;;3.28;59.63;98838.44;5016238;28;20053;-66
2021/12/03 06:31:36;;;;;;;4.22;2.22;;;;;;;3.25;59.13;98844.28;5016035;28;20054;-66
2021/12/03 06:34:22;;;;;;;6.07;2.13;;;;;;;3.13;59.16;98820.56;5016041;28;20108;-67
2021/12/03 06:37:09;;;;;;;3.65;1.42;;;;;;;3.18;59.87;98861.81;5015311;28;20061;-68
2021/12/03 06:39:57;;;;;;;4.65;1.30;;;;;;;3.14;59.58;98865.13;5015847;28;20127;-66
2021/12/03 06:42:40;;;;;;;6.13;1.60;;;;;;;3.11;59.53;98885.22;5015808;28;20042;-66
2021/12/03 06:45:25;;;;;;;6.35;1.90;;;;;;;3.07;59.87;98888.53;5015808;28;20475;-65
2021/12/03 06:48:08;;;;;;;7.25;1.70;;;;;;;3.10;59.88;98899.50;5015683;28;20057;-67
2021/12/03 06:50:50;;;;;;;5.75;1.83;;;;;;;3.15;59.72;98897.91;5015624;28;20404;-67
2021/12/03 06:53:41;;;;;;;4.00;1.75;;;;;;;3.14;59.46;98905.47;5015611;28;20116;-67
2021/12/03 06:56:24;;;;;;;4.10;1.60;;;;;;;3.17;59.26;98902.97;5015728;28;20407;-64
2021/12/03 06:59:06;;;;;;;3.83;1.50;;;;;;;3.22;58.81;98908.94;5015774;28;20049;-65
2021/12/03 07:01:50;;;;;;;4.05;1.30;;;;;;;3.21;58.75;98912.28;5015999;28;20053;-65
2021/12/03 07:04:33;;;;;;;5.57;1.73;;;;;;;3.19;58.47;98903.84;5015376;28;20045;-65
2021/12/03 07:07:17;;;;;;;4.78;1.50;;;;;;;3.65;58.25;98938.16;5015810;28;20404;-66
2021/12/03 07:10:01;;;;;;;3.45;1.27;;;;;;;3.85;58.61;98930.06;5015265;28;20077;-65
2021/12/03 07:12:42;;;;;;;5.05;1.50;;;;;;;4.11;57.95;98949.75;5015905;28;20046;-65
2021/12/03 07:15:25;;;;;;;5.00;1.70;;;;;;;4.39;57.64;98965.25;5015374;28;20045;-65
2021/12/03 07:18:09;;;;;;;3.58;1.75;;;;;;;4.60;57.13;98964.66;5015058;28;20053;-66
2021/12/03 07:20:53;;;;;;;7.03;2.38;;;;;;;4.56;56.82;98962.91;5015385;28;20112;-65
2021/12/03 07:23:36;;;;;;;3.65;1.50;;;;;;;4.64;56.40;98976.50;5015066;28;20064;-66
2021/12/03 07:26:22;;;;;;;4.78;1.63;;;;;;;4.59;56.39;98978.13;5014952;28;20078;-65
2021/12/03 07:29:05;;;;;;;3.50;1.50;;;;;;;4.65;55.94;98978.22;5014893;28;20053;-67
2021/12/03 07:31:48;;;;;;;3.25;1.15;;;;;;;4.56;54.85;98960.41;5015201;28;20053;-66
2021/12/03 07:34:31;;;;;;;4.35;1.42;;;;;;;4.75;55.21;98990.94;5014795;28;20054;-65
2021/12/03 07:37:14;;;;;;;3.90;1.60;;;;;;;4.75;54.71;98990.13;5014772;28;20118;-66
2021/12/03 07:40:00;;;;;;;3.65;1.40;;;;;;;4.73;54.71;98986.69;5014606;28;20080;-66
2021/12/03 07:42:49;;;;;;;4.97;1.50;;;;;;;4.65;54.17;98991.66;5014810;28;20096;-66
2021/12/03 07:45:30;;;;;;;2.70;1.40;;;;;;;4.63;54.01;98990.81;5014570;28;20053;-66
2021/12/03 07:48:10;;;;;;;4.45;1.50;;;;;;;4.65;54.18;99008.53;5013620;28;20050;-65
2021/12/03 07:50:50;;;;;;;5.53;1.90;;;;;;;4.62;54.21;99013.53;5014730;28;20542;-66
2021/12/03 07:53:20;;;;;;;6.55;2.10;;;;;;;4.65;54.63;99024.53;5013104;28;20054;-65
2021/12/03 07:56:01;;;;;;;5.80;2.20;;;;;;;4.70;54.67;99027.13;5014063;28;20058;-67
2021/12/03 07:58:43;;;;;;;5.68;2.20;;;;;;;4.65;54.33;99033.81;5014436;28;20054;-65
2021/12/03 08:01:27;;;;;;;7.10;2.42;;;;;;;4.79;54.38;99046.59;5014587;28;20050;-65
2021/12/03 08:04:06;;;;;;;14.80;3.50;;;;;;;4.79;54.23;99017.13;5014389;28;20050;-66
2021/12/03 08:06:51;;;;;;;11.85;3.80;;;;;;;4.93;53.91;99050.13;5014074;28;20415;-66
2021/12/03 08:09:31;;;;;;;5.15;2.22;;;;;;;5.01;53.64;99054.47;5014237;28;20518;-65
2021/12/03 08:12:11;;;;;;;4.97;1.50;;;;;;;5.00;53.26;99046.84;5014206;28;20061;-66
2021/12/03 08:14:59;;;;;;;3.78;1.35;;;;;;;5.19;53.30;99064.75;5014155;28;20492;-66
2021/12/03 08:17:28;;;;;;;3.65;1.80;;;;;;;5.06;52.51;99036.81;5014184;28;20466;-65
2021/12/03 08:20:00;;;;;;;3.05;1.25;;;;;;;5.32;52.28;99061.53;5014863;28;20073;-66
2021/12/03 08:22:30;;;;;;;6.95;1.77;;;;;;;5.43;52.23;99069.22;5014216;28;20113;-65
2021/12/03 08:25:03;;;;;;;4.35;1.40;;;;;;;5.50;52.85;99080.22;5013895;28;20503;-68
2021/12/03 08:27:33;;;;;;;4.25;1.80;;;;;;;5.32;51.98;99080.91;5013421;28;20052;-68
2021/12/03 08:30:05;;;;;;;4.82;1.77;;;;;;;5.21;52.09;99087.53;5014030;28;20045;-65
2021/12/03 08:32:38;;;;;;;7.43;1.52;;;;;;;5.21;52.32;99102.69;5013902;28;20088;-66
2021/12/03 08:35:10;;;;;;;5.13;1.40;;;;;;;5.27;52.50;99107.84;5014008;28;20398;-65
2021/12/03 08:37:44;;;;;;;5.90;1.88;;;;;;;5.40;52.27;99110.50;5014003;28;20168;-65
2021/12/03 08:40:17;;;;;;;2.42;1.30;;;;;;;5.41;52.37;99119.81;5013447;28;20046;-65
2021/12/03 08:42:47;;;;;;;5.22;1.50;;;;;;;5.48;52.14;99123.25;4997564;28;20054;-67
2021/12/03 08:45:20;;;;;;;3.95;1.67;;;;;;;5.54;52.32;99122.47;4994085;28;20108;-66
2021/12/03 08:47:53;;;;;;;2.95;1.27;;;;;;;5.60;52.33;99127.56;4994029;28;20440;-65
2021/12/03 08:50:29;;;;;;;3.60;1.40;;;;;;;5.56;52.30;99125.84;4994315;28;20058;-67
2021/12/03 08:55:50;;;;;;;5.93;2.25;;;;;;;5.70;51.80;99139.50;4987620;28;20516;-66
2021/12/03 08:58:19;;;;;;;3.83;1.48;;;;;;;5.84;52.31;99145.53;4993897;28;20046;-66
2021/12/03 09:00:53;;;;;;;3.92;1.80;;;;;;;5.88;52.13;99145.59;4997693;28;20096;-67
2021/12/03 09:03:27;;;;;;;4.38;2.13;;;;;;;5.98;51.28;99147.41;4996797;28;20047;-67
2021/12/03 09:05:56;;;;;;;3.72;1.73;;;;;;;6.13;51.40;99155.94;4997891;28;20046;-67
2021/12/03 09:08:26;;;;;;;4.40;1.92;;;;;;;6.28;51.98;99146.81;4997990;28;20034;-67
2021/12/03 09:10:59;;;;;;;5.15;1.75;;;;;;;6.43;51.95;99148.59;4997823;28;20047;-67
2021/12/03 09:13:31;;;;;;;3.85;1.60;;;;;;;6.28;50.72;99156.09;4998008;28;20105;-66
2021/12/03 09:16:05;;;;;;;3.63;1.90;;;;;;;6.23;50.61;99156.06;4998163;28;20512;-65
2021/12/03 09:18:37;;;;;;;9.35;2.38;;;;;;;6.26;51.25;99135.81;4997475;28;20444;-66
2021/12/03 09:21:23;;;;;;;4.90;1.90;;;;;;;6.57;51.51;99159.69;4997461;28;20058;-66
2021/12/03 09:24:08;;;;;;;3.83;1.85;;;;;;;6.62;51.37;99158.84;4997445;28;20054;-65
2021/12/03 09:26:39;;;;;;;6.97;2.00;;;;;;;6.54;51.03;99165.59;4997865;28;20042;-65
2021/12/03 09:29:17;;;;;;;5.70;2.05;;;;;;;6.46;50.77;99152.00;4997722;28;20504;-67
2021/12/03 09:31:51;;;;;;;6.72;2.42;;;;;;;6.64;51.33;99162.28;4997908;28;20455;-66
2021/12/03 09:34:24;;;;;;;5.88;2.38;;;;;;;6.72;51.10;99159.75;4997616;28;20119;-65
2021/12/03 09:36:57;;;;;;;5.18;2.20;;;;;;;6.77;51.54;99158.09;4997320;28;20408;-66
2021/12/03 09:39:34;;;;;;;9.98;3.33;;;;;;;6.70;51.90;99169.91;4997168;28;20043;-66
2021/12/03 09:42:06;;;;;;;5.65;2.55;;;;;;;6.63;51.59;99169.84;4997250;28;20050;-66
2021/12/03 09:44:43;;;;;;;5.25;2.30;;;;;;;6.57;51.91;99150.41;4997179;28;20061;-65
2021/12/03 09:47:18;;;;;;;6.10;2.78;;;;;;;6.85;52.08;99170.84;4997420;28;20042;-66
2021/12/03 09:49:53;;;;;;;5.95;2.08;;;;;;;6.81;51.37;99166.59;4997139;28;20396;-65
2021/12/03 09:52:29;;;;;;;6.88;2.20;;;;;;;6.84;51.02;99169.97;4995447;28;20053;-65
2021/12/03 09:55:00;;;;;;;5.40;2.20;;;;;;;6.62;51.47;99158.03;4996595;28;20488;-67
2021/12/03 09:57:36;;;;;;;6.70;2.25;;;;;;;6.90;51.23;99180.19;4997313;28;20057;-66
2021/12/03 10:00:21;;;;;;;7.30;2.20;;;;;;;6.99;50.52;99189.50;4996739;28;20049;-65
2021/12/03 10:13:49;;;;;;;4.85;2.10;;;;;;;7.06;49.52;99201.38;4996565;28;20105;-68
2021/12/03 10:16:36;;;;;;;4.95;1.90;;;;;;;6.95;49.39;99205.56;4996552;28;20122;-67
2021/12/03 10:19:24;;;;;;;6.22;1.98;;;;;;;6.64;50.08;99207.91;4996543;28;20117;-67
2021/12/03 10:24:52;;;;;;;4.03;1.98;;;;;;;6.39;50.48;99195.03;4996295;28;20047;-67
2021/12/03 10:33:13;;;;;;;5.40;1.95;;;;;;;7.11;48.37;99190.44;4996172;28;20054;-66
2021/12/03 10:38:43;;;;;;;5.38;2.00;;;;;;;7.62;48.28;99189.81;4996175;28;20046;-66
2021/12/03 10:46:47;;;;;;;5.15;2.17;;;;;;;7.47;46.40;99199.91;4993824;28;20050;-66
2021/12/03 10:49:39;;;;;;;3.20;1.60;;;;;;;7.77;46.76;99189.84;4996076;28;20047;-65
2021/12/03 11:37:16;;;;;;;3.88;1.33;;;;;;;6.61;44.47;99212.09;4995526;28;20076;-65
2021/12/03 13:11:30;;;;;;;2.47;1.27;;;;;;;6.50;44.73;99250.03;4953481;29;20069;-66
2021/12/03 14:09:11;;;;;;;4.65;1.70;;;;;;;4.88;49.33;99327.31;4995669;28;20089;-67
2021/12/03 14:37:19;;;;;;;4.15;2.00;;;;;;;3.35;57.79;99359.69;4996417;28;20129;-65
2021/12/03 14:40:02;;;;;;;3.30;1.60;;;;;;;3.30;57.40;99367.16;4996359;28;20502;-65
2021/12/03 14:45:54;;;;;;;3.85;1.70;;;;;;;3.28;57.04;99378.03;4936272;29;20043;-65
2021/12/03 14:48:42;;;;;;;9.68;2.38;;;;;;;3.40;56.90;99378.31;4996318;28;20050;-65
2021/12/03 14:57:08;;;;;;;5.63;1.73;;;;;;;3.28;56.00;99383.91;4995128;28;20523;-65
2021/12/03 14:59:38;;;;;;;3.88;1.60;;;;;;;3.20;55.69;99389.59;4996007;28;20137;-66
2021/12/03 15:02:24;;;;;;;3.53;1.50;;;;;;;3.12;56.25;99391.09;4996105;28;20463;-64
2021/12/03 15:05:18;;;;;;;3.38;1.60;;;;;;;3.06;55.64;99386.75;4974383;28;20109;-64
2021/12/03 15:07:52;;;;;;;3.55;1.50;;;;;;;3.05;54.86;99390.06;4974309;28;20054;-65
2021/12/03 15:10:35;;;;;;;5.40;1.67;;;;;;;3.10;54.64;99402.78;4975076;28;20158;-65
2021/12/03 15:13:29;;;;;;;4.20;1.67;;;;;;;3.15;54.59;99406.25;4974118;28;20046;-66
2021/12/03 15:22:05;;;;;;;5.97;1.63;;;;;;;2.89;54.76;99417.38;4973906;28;20059;-66
2021/12/03 15:24:56;;;;;;;7.35;1.90;;;;;;;2.68;55.51;99422.72;4973967;28;20129;-65
2021/12/03 15:33:16;;;;;;;4.93;2.17;;;;;;;2.19;58.03;99412.13;4971885;28;20054;-65
2021/12/03 15:35:56;;;;;;;4.43;2.10;;;;;;;2.21;60.17;99444.09;4973831;28;20059;-64
2021/12/03 16:09:08;;;;;;;7.53;2.92;;;;;;;1.53;64.11;99453.78;5132479;27;20800;-68
2021/12/03 16:11:44;;;;;;;5.15;2.58;;;;;;;1.52;64.96;99457.94;5131990;27;20067;-67
2021/12/03 16:47:27;;;;;;;5.43;2.65;;;;;;;1.18;66.66;99476.13;5068356;28;20064;-67
2021/12/03 16:53:07;;;;;;;8.00;3.30;;;;;;;1.01;67.04;99492.28;5088296;28;20052;-65
2021/12/03 16:55:44;;;;;;;6.22;3.28;;;;;;;1.08;66.70;99496.72;5088158;28;20434;-65
2021/12/03 16:58:18;;;;;;;8.85;4.38;;;;;;;1.25;67.11;99497.28;5071392;28;20131;-68
2021/12/03 17:00:56;;;;;;;9.73;3.83;;;;;;;1.18;66.45;99488.69;5088047;28;20050;-67
2021/12/03 17:03:29;;;;;;;11.82;4.15;;;;;;;1.17;66.39;99493.69;5088019;28;20044;-66
2021/12/03 17:14:13;;;;;;;9.57;4.22;;;;;;;0.80;66.92;99491.56;5096124;28;20054;-65
2021/12/03 17:49:40;;;;;;;18.60;8.93;;;;;;;0.87;68.96;99537.84;5116704;28;20072;-69
2021/12/03 17:57:46;;;;;;;30.80;13.00;;;;;;;0.60;68.80;99541.09;5114434;28;20047;-65
2021/12/03 18:00:22;;;;;;;23.95;10.80;;;;;;;0.47;69.32;99528.03;5116117;28;20080;-67
2021/12/03 18:02:58;;;;;;;22.33;10.25;;;;;;;0.51;69.45;99557.47;5116070;28;20057;-65
2021/12/03 18:05:52;;;;;;;17.23;8.48;;;;;;;0.59;69.83;99556.09;5115063;28;20397;-65
2021/12/03 18:08:25;;;;;;;14.88;7.60;;;;;;;0.71;69.18;99544.00;5115270;28;20055;-69
2021/12/03 18:11:25;;;;;;;16.92;8.30;;;;;;;0.68;68.78;99541.38;5114864;28;20051;-65
2021/12/03 18:43:09;;;;;;;19.00;8.07;;;;;;;0.14;69.73;99544.34;5115513;28;20076;-65
2021/12/03 18:49:46;;;;;;;17.23;8.50;;;;;;;-0.23;71.32;99532.91;5115052;28;20055;-66
2021/12/03 18:55:27;;;;;;;18.73;8.40;;;;;;;-0.10;71.51;99532.56;5113297;27;20570;-67
2021/12/03 18:57:59;;;;;;;;;;;;;;;0.06;71.03;99533.16;5115468;28;20044;-67
2021/12/03 19:00:31;;;;;;;24.98;10.18;;;;;;;-0.02;71.14;99535.38;5115289;28;19924;-66
2021/12/03 19:03:05;;;;;;;19.67;10.25;;;;;;;-0.05;71.44;99546.16;5114979;28;20046;-66
2021/12/03 19:05:47;;;;;;;24.10;10.77;;;;;;;-0.02;71.29;99553.78;5114806;28;20054;-66
2021/12/03 19:08:33;;;;;;;21.65;9.95;;;;;;;-0.08;71.34;99551.06;5113887;28;20451;-69
2021/12/03 19:11:08;;;;;;;17.23;9.40;;;;;;;-0.28;71.61;99526.84;5114906;28;20550;-68
2021/12/03 19:13:40;;;;;;;20.83;9.70;;;;;;;-0.02;71.59;99553.78;5114631;28;20043;-66
2021/12/03 19:16:14;;;;;;;28.33;10.98;;;;;;;-0.14;71.45;99553.31;5115260;28;20055;-67
2021/12/03 19:18:47;;;;;;;29.95;10.75;;;;;;;-0.20;71.25;99548.06;5114630;28;20039;-69
2021/12/03 19:21:25;;;;;;;22.65;11.23;;;;;;;-0.06;71.61;99556.13;5114500;28;20052;-66
2021/12/03 19:23:59;;;;;;;28.52;13.02;;;;;;;-0.20;71.40;99553.09;5114822;28;20489;-70
2021/12/03 19:26:34;;;;;;;28.38;12.30;;;;;;;-0.24;71.71;99553.75;5114484;28;20148;-69